sensor_id;sensor_type;location;lat;lon;timestamp;P1;durP1;ratioP1;P2;durP2;ratioP2
30635;SDS011;17400;52.392;9.750;2023-01-25T00:00:11;17.07;;;10.87;;
30635;SDS011;17400;52.392;9.750;2023-01-25T00:02:41;16.57;;;9.67;;
30635;SDS011;17400;52.392;9.750;2023-01-25T00:05:08;17.57;;;11.30;;
30635;SDS011;17400;52.392;9.750;2023-01-25T00:07:36;17.67;;;9.60;;
30635;SDS011;17400;52.392;9.750;2023-01-25T00:10:04;19.07;;;9.23;;
30635;SDS011;17400;52.392;9.750;2023-01-25T00:12:33;17.87;;;8.77;;
30635;SDS011;17400;52.392;9.750;2023-01-25T00:15:00;12.27;;;6.53;;
30635;SDS011;17400;52.392;9.750;2023-01-25T00:17:28;19.03;;;10.50;;
30635;SDS011;17400;52.392;9.750;2023-01-25T00:19:57;16.20;;;8.07;;
30635;SDS011;17400;52.392;9.750;2023-01-25T00:22:24;15.90;;;8.53;;
30635;SDS011;17400;52.392;9.750;2023-01-25T00:24:52;18.70;;;9.33;;
30635;SDS011;17400;52.392;9.750;2023-01-25T00:27:20;15.33;;;8.63;;
30635;SDS011;17400;52.392;9.750;2023-01-25T00:29:48;16.50;;;8.97;;
30635;SDS011;17400;52.392;9.750;2023-01-25T00:32:31;14.83;;;7.67;;
30635;SDS011;17400;52.392;9.750;2023-01-25T00:35:10;17.23;;;8.30;;
30635;SDS011;17400;52.392;9.750;2023-01-25T00:37:39;8.33;;;5.67;;
30635;SDS011;17400;52.392;9.750;2023-01-25T00:40:10;11.47;;;6.80;;
30635;SDS011;17400;52.392;9.750;2023-01-25T00:42:39;15.93;;;8.67;;
30635;SDS011;17400;52.392;9.750;2023-01-25T00:45:08;15.13;;;8.90;;
30635;SDS011;17400;52.392;9.750;2023-01-25T00:47:37;17.50;;;9.00;;
30635;SDS011;17400;52.392;9.750;2023-01-25T00:50:06;17.13;;;9.13;;
30635;SDS011;17400;52.392;9.750;2023-01-25T00:52:35;13.07;;;7.30;;
30635;SDS011;17400;52.392;9.750;2023-01-25T00:55:03;12.73;;;7.60;;
30635;SDS011;17400;52.392;9.750;2023-01-25T00:57:32;15.97;;;8.73;;
30635;SDS011;17400;52.392;9.750;2023-01-25T00:59:59;16.73;;;7.80;;
30635;SDS011;17400;52.392;9.750;2023-01-25T01:02:28;13.47;;;7.00;;
30635;SDS011;17400;52.392;9.750;2023-01-25T01:04:56;14.80;;;8.00;;
30635;SDS011;17400;52.392;9.750;2023-01-25T01:07:24;13.40;;;8.17;;
30635;SDS011;17400;52.392;9.750;2023-01-25T01:09:53;11.67;;;7.97;;
30635;SDS011;17400;52.392;9.750;2023-01-25T01:12:20;16.50;;;9.23;;
30635;SDS011;17400;52.392;9.750;2023-01-25T01:14:48;17.83;;;8.83;;
30635;SDS011;17400;52.392;9.750;2023-01-25T01:17:16;15.73;;;8.90;;
30635;SDS011;17400;52.392;9.750;2023-01-25T01:19:43;14.30;;;7.30;;
30635;SDS011;17400;52.392;9.750;2023-01-25T01:22:11;15.13;;;8.20;;
30635;SDS011;17400;52.392;9.750;2023-01-25T01:24:38;16.30;;;8.73;;
30635;SDS011;17400;52.392;9.750;2023-01-25T01:27:09;15.37;;;8.80;;
30635;SDS011;17400;52.392;9.750;2023-01-25T01:29:37;13.20;;;6.83;;
30635;SDS011;17400;52.392;9.750;2023-01-25T01:32:05;18.30;;;8.30;;
30635;SDS011;17400;52.392;9.750;2023-01-25T01:34:32;18.23;;;8.60;;
30635;SDS011;17400;52.392;9.750;2023-01-25T01:37:00;16.33;;;7.87;;
30635;SDS011;17400;52.392;9.750;2023-01-25T01:39:28;24.20;;;10.03;;
30635;SDS011;17400;52.392;9.750;2023-01-25T01:41:55;12.47;;;6.20;;
30635;SDS011;17400;52.392;9.750;2023-01-25T01:47:13;15.60;;;7.67;;
30635;SDS011;17400;52.392;9.750;2023-01-25T01:49:46;14.70;;;7.33;;
30635;SDS011;17400;52.392;9.750;2023-01-25T01:52:19;14.33;;;7.50;;
30635;SDS011;17400;52.392;9.750;2023-01-25T01:54:52;14.27;;;7.43;;
30635;SDS011;17400;52.392;9.750;2023-01-25T01:57:24;13.70;;;7.23;;
30635;SDS011;17400;52.392;9.750;2023-01-25T01:59:57;18.77;;;9.30;;
30635;SDS011;17400;52.392;9.750;2023-01-25T02:02:30;15.43;;;8.27;;
30635;SDS011;17400;52.392;9.750;2023-01-25T02:04:58;15.20;;;8.83;;
30635;SDS011;17400;52.392;9.750;2023-01-25T02:07:31;16.57;;;8.57;;
30635;SDS011;17400;52.392;9.750;2023-01-25T02:10:01;15.60;;;8.77;;
30635;SDS011;17400;52.392;9.750;2023-01-25T02:12:31;18.73;;;9.87;;
30635;SDS011;17400;52.392;9.750;2023-01-25T02:15:00;14.10;;;8.17;;
30635;SDS011;17400;52.392;9.750;2023-01-25T02:17:28;17.67;;;8.17;;
30635;SDS011;17400;52.392;9.750;2023-01-25T02:19:59;16.83;;;8.10;;
30635;SDS011;17400;52.392;9.750;2023-01-25T02:22:34;22.07;;;10.20;;
30635;SDS011;17400;52.392;9.750;2023-01-25T02:25:10;12.57;;;6.10;;
30635;SDS011;17400;52.392;9.750;2023-01-25T02:27:41;16.77;;;8.57;;
30635;SDS011;17400;52.392;9.750;2023-01-25T02:30:12;13.80;;;6.50;;
30635;SDS011;17400;52.392;9.750;2023-01-25T02:32:40;17.37;;;8.73;;
30635;SDS011;17400;52.392;9.750;2023-01-25T02:35:09;18.87;;;10.30;;
30635;SDS011;17400;52.392;9.750;2023-01-25T02:37:44;21.40;;;10.20;;
30635;SDS011;17400;52.392;9.750;2023-01-25T02:40:13;21.90;;;9.63;;
30635;SDS011;17400;52.392;9.750;2023-01-25T02:42:42;20.57;;;9.03;;
30635;SDS011;17400;52.392;9.750;2023-01-25T02:45:14;21.27;;;9.47;;
30635;SDS011;17400;52.392;9.750;2023-01-25T02:47:45;16.83;;;8.53;;
30635;SDS011;17400;52.392;9.750;2023-01-25T02:50:14;12.13;;;6.60;;
30635;SDS011;17400;52.392;9.750;2023-01-25T02:52:42;20.50;;;8.73;;
30635;SDS011;17400;52.392;9.750;2023-01-25T02:55:09;20.37;;;8.90;;
30635;SDS011;17400;52.392;9.750;2023-01-25T02:57:38;15.43;;;8.43;;
30635;SDS011;17400;52.392;9.750;2023-01-25T03:00:06;16.33;;;8.60;;
30635;SDS011;17400;52.392;9.750;2023-01-25T03:02:35;15.20;;;7.70;;
30635;SDS011;17400;52.392;9.750;2023-01-25T03:05:03;16.30;;;8.00;;
30635;SDS011;17400;52.392;9.750;2023-01-25T03:07:32;14.90;;;7.93;;
30635;SDS011;17400;52.392;9.750;2023-01-25T03:10:00;16.00;;;9.13;;
30635;SDS011;17400;52.392;9.750;2023-01-25T03:12:28;16.03;;;8.17;;
30635;SDS011;17400;52.392;9.750;2023-01-25T03:14:57;14.60;;;8.57;;
30635;SDS011;17400;52.392;9.750;2023-01-25T03:17:24;14.10;;;7.07;;
30635;SDS011;17400;52.392;9.750;2023-01-25T03:19:52;16.80;;;7.33;;
30635;SDS011;17400;52.392;9.750;2023-01-25T03:22:20;16.63;;;8.10;;
30635;SDS011;17400;52.392;9.750;2023-01-25T03:24:48;14.13;;;7.27;;
30635;SDS011;17400;52.392;9.750;2023-01-25T03:27:15;18.17;;;8.73;;
30635;SDS011;17400;52.392;9.750;2023-01-25T03:29:44;15.93;;;6.83;;
30635;SDS011;17400;52.392;9.750;2023-01-25T03:32:15;15.17;;;7.10;;
30635;SDS011;17400;52.392;9.750;2023-01-25T03:34:43;12.17;;;6.50;;
30635;SDS011;17400;52.392;9.750;2023-01-25T03:37:11;14.53;;;7.53;;
30635;SDS011;17400;52.392;9.750;2023-01-25T03:39:39;17.50;;;8.37;;
30635;SDS011;17400;52.392;9.750;2023-01-25T03:42:07;13.47;;;8.07;;
30635;SDS011;17400;52.392;9.750;2023-01-25T03:44:34;12.20;;;6.53;;
30635;SDS011;17400;52.392;9.750;2023-01-25T03:47:02;14.30;;;7.93;;
30635;SDS011;17400;52.392;9.750;2023-01-25T03:49:31;15.10;;;7.70;;
30635;SDS011;17400;52.392;9.750;2023-01-25T03:51:59;8.90;;;5.03;;
30635;SDS011;17400;52.392;9.750;2023-01-25T03:54:26;11.37;;;5.90;;
30635;SDS011;17400;52.392;9.750;2023-01-25T03:56:54;10.93;;;6.03;;
30635;SDS011;17400;52.392;9.750;2023-01-25T03:59:21;12.13;;;6.20;;
30635;SDS011;17400;52.392;9.750;2023-01-25T04:01:49;9.20;;;5.23;;
30635;SDS011;17400;52.392;9.750;2023-01-25T04:04:17;12.53;;;5.17;;
30635;SDS011;17400;52.392;9.750;2023-01-25T04:06:46;11.00;;;5.70;;
30635;SDS011;17400;52.392;9.750;2023-01-25T04:09:14;12.27;;;6.70;;
30635;SDS011;17400;52.392;9.750;2023-01-25T04:11:42;10.23;;;5.03;;
30635;SDS011;17400;52.392;9.750;2023-01-25T04:14:09;9.67;;;4.67;;
30635;SDS011;17400;52.392;9.750;2023-01-25T04:16:38;12.47;;;5.60;;
30635;SDS011;17400;52.392;9.750;2023-01-25T04:19:09;11.70;;;5.37;;
30635;SDS011;17400;52.392;9.750;2023-01-25T04:21:36;8.90;;;4.93;;
30635;SDS011;17400;52.392;9.750;2023-01-25T04:24:06;10.30;;;5.73;;
30635;SDS011;17400;52.392;9.750;2023-01-25T04:26:33;9.60;;;5.43;;
30635;SDS011;17400;52.392;9.750;2023-01-25T04:29:01;10.33;;;5.47;;
30635;SDS011;17400;52.392;9.750;2023-01-25T04:31:29;13.57;;;6.13;;
30635;SDS011;17400;52.392;9.750;2023-01-25T04:33:57;11.50;;;6.03;;
30635;SDS011;17400;52.392;9.750;2023-01-25T04:36:24;8.87;;;4.63;;
30635;SDS011;17400;52.392;9.750;2023-01-25T04:38:52;9.43;;;4.93;;
30635;SDS011;17400;52.392;9.750;2023-01-25T04:41:21;8.83;;;5.10;;
30635;SDS011;17400;52.392;9.750;2023-01-25T04:43:52;11.03;;;5.63;;
30635;SDS011;17400;52.392;9.750;2023-01-25T04:46:19;9.77;;;4.93;;
30635;SDS011;17400;52.392;9.750;2023-01-25T04:48:47;11.50;;;5.50;;
30635;SDS011;17400;52.392;9.750;2023-01-25T04:51:15;8.77;;;5.57;;
30635;SDS011;17400;52.392;9.750;2023-01-25T04:53:42;9.67;;;5.90;;
30635;SDS011;17400;52.392;9.750;2023-01-25T04:56:10;11.07;;;6.20;;
30635;SDS011;17400;52.392;9.750;2023-01-25T04:58:39;14.97;;;6.73;;
30635;SDS011;17400;52.392;9.750;2023-01-25T05:01:07;17.27;;;8.20;;
30635;SDS011;17400;52.392;9.750;2023-01-25T05:03:35;11.10;;;6.00;;
30635;SDS011;17400;52.392;9.750;2023-01-25T05:06:03;11.70;;;6.00;;
30635;SDS011;17400;52.392;9.750;2023-01-25T05:08:31;11.13;;;6.07;;
30635;SDS011;17400;52.392;9.750;2023-01-25T05:10:58;10.30;;;5.80;;
30635;SDS011;17400;52.392;9.750;2023-01-25T05:13:26;7.80;;;4.60;;
30635;SDS011;17400;52.392;9.750;2023-01-25T05:15:55;10.87;;;5.53;;
30635;SDS011;17400;52.392;9.750;2023-01-25T05:18:23;10.90;;;3.80;;
30635;SDS011;17400;52.392;9.750;2023-01-25T05:20:56;9.70;;;6.40;;
30635;SDS011;17400;52.392;9.750;2023-01-25T05:23:24;9.87;;;4.87;;
30635;SDS011;17400;52.392;9.750;2023-01-25T05:25:51;10.90;;;6.47;;
30635;SDS011;17400;52.392;9.750;2023-01-25T05:28:36;15.47;;;6.17;;
30635;SDS011;17400;52.392;9.750;2023-01-25T05:31:05;12.33;;;5.03;;
30635;SDS011;17400;52.392;9.750;2023-01-25T05:33:33;8.43;;;5.17;;
30635;SDS011;17400;52.392;9.750;2023-01-25T05:36:01;13.70;;;5.47;;
30635;SDS011;17400;52.392;9.750;2023-01-25T05:38:28;8.50;;;5.07;;
30635;SDS011;17400;52.392;9.750;2023-01-25T05:40:56;11.07;;;6.83;;
30635;SDS011;17400;52.392;9.750;2023-01-25T05:43:24;11.53;;;6.40;;
30635;SDS011;17400;52.392;9.750;2023-01-25T05:45:52;14.50;;;6.77;;
30635;SDS011;17400;52.392;9.750;2023-01-25T05:48:21;12.87;;;6.03;;
30635;SDS011;17400;52.392;9.750;2023-01-25T05:50:49;13.00;;;6.33;;
30635;SDS011;17400;52.392;9.750;2023-01-25T05:53:16;12.13;;;6.40;;
30635;SDS011;17400;52.392;9.750;2023-01-25T05:55:44;13.80;;;7.13;;
30635;SDS011;17400;52.392;9.750;2023-01-25T05:58:11;13.20;;;6.63;;
30635;SDS011;17400;52.392;9.750;2023-01-25T06:00:39;13.03;;;6.53;;
30635;SDS011;17400;52.392;9.750;2023-01-25T06:03:07;13.67;;;6.80;;
30635;SDS011;17400;52.392;9.750;2023-01-25T06:05:36;16.00;;;7.13;;
30635;SDS011;17400;52.392;9.750;2023-01-25T06:08:04;15.80;;;6.07;;
30635;SDS011;17400;52.392;9.750;2023-01-25T06:10:32;14.00;;;6.93;;
30635;SDS011;17400;52.392;9.750;2023-01-25T06:13:00;13.87;;;7.37;;
30635;SDS011;17400;52.392;9.750;2023-01-25T06:15:28;10.97;;;6.37;;
30635;SDS011;17400;52.392;9.750;2023-01-25T06:17:55;14.17;;;7.27;;
30635;SDS011;17400;52.392;9.750;2023-01-25T06:20:23;15.03;;;7.70;;
30635;SDS011;17400;52.392;9.750;2023-01-25T06:22:52;15.13;;;7.50;;
30635;SDS011;17400;52.392;9.750;2023-01-25T06:25:20;11.97;;;7.00;;
30635;SDS011;17400;52.392;9.750;2023-01-25T06:27:48;12.80;;;6.50;;
30635;SDS011;17400;52.392;9.750;2023-01-25T06:30:16;12.60;;;5.57;;
30635;SDS011;17400;52.392;9.750;2023-01-25T06:32:43;13.00;;;7.27;;
30635;SDS011;17400;52.392;9.750;2023-01-25T06:35:11;15.67;;;7.53;;
30635;SDS011;17400;52.392;9.750;2023-01-25T06:37:39;13.57;;;7.23;;
30635;SDS011;17400;52.392;9.750;2023-01-25T06:40:09;16.23;;;7.23;;
30635;SDS011;17400;52.392;9.750;2023-01-25T06:42:38;15.27;;;7.33;;
30635;SDS011;17400;52.392;9.750;2023-01-25T06:45:06;13.70;;;7.53;;
30635;SDS011;17400;52.392;9.750;2023-01-25T06:47:35;18.20;;;7.93;;
30635;SDS011;17400;52.392;9.750;2023-01-25T06:50:03;18.63;;;7.43;;
30635;SDS011;17400;52.392;9.750;2023-01-25T06:52:30;15.90;;;8.23;;
30635;SDS011;17400;52.392;9.750;2023-01-25T06:55:01;17.77;;;9.30;;
30635;SDS011;17400;52.392;9.750;2023-01-25T06:57:31;14.87;;;8.03;;
30635;SDS011;17400;52.392;9.750;2023-01-25T06:59:59;22.23;;;10.73;;
30635;SDS011;17400;52.392;9.750;2023-01-25T07:02:26;19.37;;;8.57;;
30635;SDS011;17400;52.392;9.750;2023-01-25T07:04:54;16.13;;;8.47;;
30635;SDS011;17400;52.392;9.750;2023-01-25T07:07:22;9.57;;;4.13;;
30635;SDS011;17400;52.392;9.750;2023-01-25T07:09:50;15.57;;;8.03;;
30635;SDS011;17400;52.392;9.750;2023-01-25T07:12:18;20.90;;;11.33;;
30635;SDS011;17400;52.392;9.750;2023-01-25T07:14:47;26.43;;;11.93;;
30635;SDS011;17400;52.392;9.750;2023-01-25T07:17:14;17.40;;;9.07;;
30635;SDS011;17400;52.392;9.750;2023-01-25T07:19:43;21.33;;;10.70;;
30635;SDS011;17400;52.392;9.750;2023-01-25T07:22:10;17.33;;;8.47;;
30635;SDS011;17400;52.392;9.750;2023-01-25T07:24:38;18.60;;;9.07;;
30635;SDS011;17400;52.392;9.750;2023-01-25T07:27:06;17.70;;;7.97;;
30635;SDS011;17400;52.392;9.750;2023-01-25T07:29:34;24.57;;;9.10;;
30635;SDS011;17400;52.392;9.750;2023-01-25T07:32:03;18.93;;;8.93;;
30635;SDS011;17400;52.392;9.750;2023-01-25T07:34:31;19.13;;;9.13;;
30635;SDS011;17400;52.392;9.750;2023-01-25T07:37:01;18.57;;;8.80;;
30635;SDS011;17400;52.392;9.750;2023-01-25T07:39:29;20.57;;;9.57;;
30635;SDS011;17400;52.392;9.750;2023-01-25T07:41:57;14.33;;;8.17;;
30635;SDS011;17400;52.392;9.750;2023-01-25T07:44:27;24.47;;;13.50;;
30635;SDS011;17400;52.392;9.750;2023-01-25T07:46:54;21.20;;;10.53;;
30635;SDS011;17400;52.392;9.750;2023-01-25T07:49:23;17.40;;;8.17;;
30635;SDS011;17400;52.392;9.750;2023-01-25T07:51:51;18.77;;;9.77;;
30635;SDS011;17400;52.392;9.750;2023-01-25T07:54:19;17.37;;;8.30;;
30635;SDS011;17400;52.392;9.750;2023-01-25T07:56:47;19.87;;;9.83;;
30635;SDS011;17400;52.392;9.750;2023-01-25T07:59:15;24.67;;;12.83;;
30635;SDS011;17400;52.392;9.750;2023-01-25T08:01:42;16.53;;;9.63;;
30635;SDS011;17400;52.392;9.750;2023-01-25T08:04:10;20.13;;;10.87;;
30635;SDS011;17400;52.392;9.750;2023-01-25T08:06:39;20.60;;;9.30;;
30635;SDS011;17400;52.392;9.750;2023-01-25T08:09:08;21.63;;;10.67;;
30635;SDS011;17400;52.392;9.750;2023-01-25T08:11:38;23.37;;;11.30;;
30635;SDS011;17400;52.392;9.750;2023-01-25T08:14:07;19.27;;;9.53;;
30635;SDS011;17400;52.392;9.750;2023-01-25T08:16:36;19.03;;;9.33;;
30635;SDS011;17400;52.392;9.750;2023-01-25T08:19:04;20.63;;;10.83;;
30635;SDS011;17400;52.392;9.750;2023-01-25T08:21:32;20.60;;;9.17;;
30635;SDS011;17400;52.392;9.750;2023-01-25T08:24:03;15.03;;;7.73;;
30635;SDS011;17400;52.392;9.750;2023-01-25T08:26:32;15.13;;;8.03;;
30635;SDS011;17400;52.392;9.750;2023-01-25T08:29:00;19.17;;;8.73;;
30635;SDS011;17400;52.392;9.750;2023-01-25T08:31:29;20.83;;;9.83;;
30635;SDS011;17400;52.392;9.750;2023-01-25T08:33:58;19.47;;;8.07;;
30635;SDS011;17400;52.392;9.750;2023-01-25T08:36:27;18.33;;;8.73;;
30635;SDS011;17400;52.392;9.750;2023-01-25T08:38:55;19.67;;;8.33;;
30635;SDS011;17400;52.392;9.750;2023-01-25T08:41:26;19.03;;;7.37;;
30635;SDS011;17400;52.392;9.750;2023-01-25T08:43:55;18.00;;;8.83;;
30635;SDS011;17400;52.392;9.750;2023-01-25T08:46:24;22.77;;;11.47;;
30635;SDS011;17400;52.392;9.750;2023-01-25T08:48:57;32.97;;;16.13;;
30635;SDS011;17400;52.392;9.750;2023-01-25T08:51:25;21.60;;;9.83;;
30635;SDS011;17400;52.392;9.750;2023-01-25T08:53:54;20.30;;;10.27;;
30635;SDS011;17400;52.392;9.750;2023-01-25T08:56:21;17.43;;;9.50;;
30635;SDS011;17400;52.392;9.750;2023-01-25T08:58:51;16.83;;;9.13;;
30635;SDS011;17400;52.392;9.750;2023-01-25T09:01:18;17.70;;;8.70;;
30635;SDS011;17400;52.392;9.750;2023-01-25T09:03:47;21.03;;;9.10;;
30635;SDS011;17400;52.392;9.750;2023-01-25T09:06:17;20.20;;;9.43;;
30635;SDS011;17400;52.392;9.750;2023-01-25T09:08:46;18.93;;;8.67;;
30635;SDS011;17400;52.392;9.750;2023-01-25T09:11:18;14.07;;;7.10;;
30635;SDS011;17400;52.392;9.750;2023-01-25T09:13:47;16.90;;;7.77;;
30635;SDS011;17400;52.392;9.750;2023-01-25T09:16:18;16.63;;;7.93;;
30635;SDS011;17400;52.392;9.750;2023-01-25T09:18:53;13.20;;;7.33;;
30635;SDS011;17400;52.392;9.750;2023-01-25T09:21:22;24.60;;;8.93;;
30635;SDS011;17400;52.392;9.750;2023-01-25T09:23:52;16.00;;;8.17;;
30635;SDS011;17400;52.392;9.750;2023-01-25T09:26:37;18.73;;;9.10;;
30635;SDS011;17400;52.392;9.750;2023-01-25T09:29:08;17.77;;;9.20;;
30635;SDS011;17400;52.392;9.750;2023-01-25T09:31:38;21.87;;;9.63;;
30635;SDS011;17400;52.392;9.750;2023-01-25T09:34:09;17.10;;;9.23;;
30635;SDS011;17400;52.392;9.750;2023-01-25T09:36:38;19.33;;;10.27;;
30635;SDS011;17400;52.392;9.750;2023-01-25T09:39:08;21.17;;;10.57;;
30635;SDS011;17400;52.392;9.750;2023-01-25T09:41:52;17.70;;;9.33;;
30635;SDS011;17400;52.392;9.750;2023-01-25T09:44:45;18.77;;;9.43;;
30635;SDS011;17400;52.392;9.750;2023-01-25T09:47:27;21.47;;;10.40;;
30635;SDS011;17400;52.392;9.750;2023-01-25T09:50:11;23.10;;;9.77;;
30635;SDS011;17400;52.392;9.750;2023-01-25T09:52:52;25.00;;;11.50;;
30635;SDS011;17400;52.392;9.750;2023-01-25T09:55:33;21.70;;;11.13;;
30635;SDS011;17400;52.392;9.750;2023-01-25T09:58:01;22.27;;;10.13;;
30635;SDS011;17400;52.392;9.750;2023-01-25T10:00:31;26.37;;;10.90;;
30635;SDS011;17400;52.392;9.750;2023-01-25T10:03:04;18.33;;;8.37;;
30635;SDS011;17400;52.392;9.750;2023-01-25T10:05:43;22.70;;;8.90;;
30635;SDS011;17400;52.392;9.750;2023-01-25T10:08:16;20.43;;;8.50;;
30635;SDS011;17400;52.392;9.750;2023-01-25T10:10:49;17.70;;;8.17;;
30635;SDS011;17400;52.392;9.750;2023-01-25T10:13:22;20.83;;;8.90;;
30635;SDS011;17400;52.392;9.750;2023-01-25T10:15:51;15.97;;;7.07;;
30635;SDS011;17400;52.392;9.750;2023-01-25T10:18:24;17.33;;;8.30;;
30635;SDS011;17400;52.392;9.750;2023-01-25T10:20:59;20.87;;;8.60;;
30635;SDS011;17400;52.392;9.750;2023-01-25T10:23:33;17.67;;;8.37;;
30635;SDS011;17400;52.392;9.750;2023-01-25T10:26:13;17.80;;;8.53;;
30635;SDS011;17400;52.392;9.750;2023-01-25T10:28:50;21.17;;;9.47;;
30635;SDS011;17400;52.392;9.750;2023-01-25T10:31:28;15.23;;;8.50;;
30635;SDS011;17400;52.392;9.750;2023-01-25T10:34:10;17.93;;;8.43;;
30635;SDS011;17400;52.392;9.750;2023-01-25T10:36:44;17.50;;;8.17;;
30635;SDS011;17400;52.392;9.750;2023-01-25T10:39:15;20.00;;;8.23;;
30635;SDS011;17400;52.392;9.750;2023-01-25T10:41:45;20.93;;;10.77;;
30635;SDS011;17400;52.392;9.750;2023-01-25T10:44:17;16.00;;;8.37;;
30635;SDS011;17400;52.392;9.750;2023-01-25T10:46:53;19.50;;;8.73;;
30635;SDS011;17400;52.392;9.750;2023-01-25T10:49:25;17.10;;;7.90;;
30635;SDS011;17400;52.392;9.750;2023-01-25T10:52:09;18.17;;;8.63;;
30635;SDS011;17400;52.392;9.750;2023-01-25T10:54:39;22.03;;;10.53;;
30635;SDS011;17400;52.392;9.750;2023-01-25T10:57:07;18.10;;;9.30;;
30635;SDS011;17400;52.392;9.750;2023-01-25T10:59:38;21.37;;;9.60;;
30635;SDS011;17400;52.392;9.750;2023-01-25T11:05:25;18.20;;;9.00;;
30635;SDS011;17400;52.392;9.750;2023-01-25T11:07:55;20.63;;;8.50;;
30635;SDS011;17400;52.392;9.750;2023-01-25T11:10:27;25.70;;;9.20;;
30635;SDS011;17400;52.392;9.750;2023-01-25T11:13:16;20.10;;;9.63;;
30635;SDS011;17400;52.392;9.750;2023-01-25T11:15:46;25.90;;;10.00;;
30635;SDS011;17400;52.392;9.750;2023-01-25T11:18:17;21.07;;;9.43;;
30635;SDS011;17400;52.392;9.750;2023-01-25T11:20:50;19.70;;;8.13;;
30635;SDS011;17400;52.392;9.750;2023-01-25T11:23:31;18.20;;;8.67;;
30635;SDS011;17400;52.392;9.750;2023-01-25T11:26:10;19.00;;;7.17;;
30635;SDS011;17400;52.392;9.750;2023-01-25T11:28:39;16.90;;;8.47;;
30635;SDS011;17400;52.392;9.750;2023-01-25T11:31:08;15.27;;;6.97;;
30635;SDS011;17400;52.392;9.750;2023-01-25T11:33:39;13.10;;;7.37;;
30635;SDS011;17400;52.392;9.750;2023-01-25T11:39:09;14.37;;;7.00;;
30635;SDS011;17400;52.392;9.750;2023-01-25T11:41:48;17.70;;;8.23;;
30635;SDS011;17400;52.392;9.750;2023-01-25T11:47:38;12.43;;;6.43;;
30635;SDS011;17400;52.392;9.750;2023-01-25T11:50:19;18.40;;;7.23;;
30635;SDS011;17400;52.392;9.750;2023-01-25T11:53:02;13.30;;;7.97;;
30635;SDS011;17400;52.392;9.750;2023-01-25T11:55:48;16.83;;;7.03;;
30635;SDS011;17400;52.392;9.750;2023-01-25T11:58:31;17.70;;;7.23;;
30635;SDS011;17400;52.392;9.750;2023-01-25T12:01:10;14.93;;;7.80;;
30635;SDS011;17400;52.392;9.750;2023-01-25T12:03:57;15.23;;;7.80;;
30635;SDS011;17400;52.392;9.750;2023-01-25T12:06:38;16.57;;;8.40;;
30635;SDS011;17400;52.392;9.750;2023-01-25T12:09:20;15.73;;;7.57;;
30635;SDS011;17400;52.392;9.750;2023-01-25T12:12:08;18.37;;;9.07;;
30635;SDS011;17400;52.392;9.750;2023-01-25T12:14:47;14.87;;;7.57;;
30635;SDS011;17400;52.392;9.750;2023-01-25T12:17:36;16.53;;;8.80;;
30635;SDS011;17400;52.392;9.750;2023-01-25T12:20:32;19.27;;;8.00;;
30635;SDS011;17400;52.392;9.750;2023-01-25T12:23:12;17.60;;;7.70;;
30635;SDS011;17400;52.392;9.750;2023-01-25T12:25:55;20.77;;;10.77;;
30635;SDS011;17400;52.392;9.750;2023-01-25T12:28:32;24.00;;;10.40;;
30635;SDS011;17400;52.392;9.750;2023-01-25T12:31:06;19.07;;;8.33;;
30635;SDS011;17400;52.392;9.750;2023-01-25T12:33:40;10.33;;;6.23;;
30635;SDS011;17400;52.392;9.750;2023-01-25T12:36:14;11.30;;;5.70;;
30635;SDS011;17400;52.392;9.750;2023-01-25T12:38:47;14.33;;;5.87;;
30635;SDS011;17400;52.392;9.750;2023-01-25T12:41:27;17.70;;;8.20;;
30635;SDS011;17400;52.392;9.750;2023-01-25T12:44:02;17.80;;;8.07;;
30635;SDS011;17400;52.392;9.750;2023-01-25T12:46:37;16.80;;;7.80;;
30635;SDS011;17400;52.392;9.750;2023-01-25T12:49:14;17.33;;;8.70;;
30635;SDS011;17400;52.392;9.750;2023-01-25T12:51:47;13.67;;;5.87;;
30635;SDS011;17400;52.392;9.750;2023-01-25T12:54:19;14.97;;;6.93;;
30635;SDS011;17400;52.392;9.750;2023-01-25T12:56:53;13.60;;;6.70;;
30635;SDS011;17400;52.392;9.750;2023-01-25T12:59:29;12.73;;;5.97;;
30635;SDS011;17400;52.392;9.750;2023-01-25T13:02:08;15.47;;;6.77;;
30635;SDS011;17400;52.392;9.750;2023-01-25T13:04:52;17.43;;;8.43;;
30635;SDS011;17400;52.392;9.750;2023-01-25T13:07:28;17.50;;;6.50;;
30635;SDS011;17400;52.392;9.750;2023-01-25T13:10:03;15.60;;;7.43;;
30635;SDS011;17400;52.392;9.750;2023-01-25T13:12:51;17.33;;;8.60;;
30635;SDS011;17400;52.392;9.750;2023-01-25T13:15:38;18.77;;;7.93;;
30635;SDS011;17400;52.392;9.750;2023-01-25T13:21:07;16.00;;;7.60;;
30635;SDS011;17400;52.392;9.750;2023-01-25T13:23:38;16.50;;;6.77;;
30635;SDS011;17400;52.392;9.750;2023-01-25T13:35:26;18.73;;;8.07;;
30635;SDS011;17400;52.392;9.750;2023-01-25T13:37:56;19.03;;;8.70;;
30635;SDS011;17400;52.392;9.750;2023-01-25T13:40:27;14.33;;;6.57;;
30635;SDS011;17400;52.392;9.750;2023-01-25T13:42:59;18.97;;;7.97;;
30635;SDS011;17400;52.392;9.750;2023-01-25T13:45:29;13.53;;;7.33;;
30635;SDS011;17400;52.392;9.750;2023-01-25T13:48:10;14.13;;;6.40;;
30635;SDS011;17400;52.392;9.750;2023-01-25T13:50:43;16.93;;;6.77;;
30635;SDS011;17400;52.392;9.750;2023-01-25T13:53:17;12.23;;;5.87;;
30635;SDS011;17400;52.392;9.750;2023-01-25T13:55:47;13.43;;;6.53;;
30635;SDS011;17400;52.392;9.750;2023-01-25T13:58:17;15.70;;;7.83;;
30635;SDS011;17400;52.392;9.750;2023-01-25T14:00:47;12.63;;;6.87;;
30635;SDS011;17400;52.392;9.750;2023-01-25T14:03:18;11.93;;;6.17;;
30635;SDS011;17400;52.392;9.750;2023-01-25T14:05:48;11.00;;;6.03;;
30635;SDS011;17400;52.392;9.750;2023-01-25T14:08:17;14.00;;;7.07;;
30635;SDS011;17400;52.392;9.750;2023-01-25T14:10:47;11.63;;;6.20;;
30635;SDS011;17400;52.392;9.750;2023-01-25T14:13:15;13.03;;;5.67;;
30635;SDS011;17400;52.392;9.750;2023-01-25T14:15:54;11.83;;;5.70;;
30635;SDS011;17400;52.392;9.750;2023-01-25T14:18:29;10.97;;;5.77;;
30635;SDS011;17400;52.392;9.750;2023-01-25T14:21:11;14.10;;;6.30;;
30635;SDS011;17400;52.392;9.750;2023-01-25T14:23:42;13.27;;;6.07;;
30635;SDS011;17400;52.392;9.750;2023-01-25T14:26:14;14.07;;;5.97;;
30635;SDS011;17400;52.392;9.750;2023-01-25T14:28:45;12.33;;;6.03;;
30635;SDS011;17400;52.392;9.750;2023-01-25T14:31:31;13.57;;;7.60;;
30635;SDS011;17400;52.392;9.750;2023-01-25T14:34:03;13.37;;;6.10;;
30635;SDS011;17400;52.392;9.750;2023-01-25T14:36:32;12.07;;;4.63;;
30635;SDS011;17400;52.392;9.750;2023-01-25T14:39:00;11.73;;;6.63;;
30635;SDS011;17400;52.392;9.750;2023-01-25T14:41:30;14.73;;;6.33;;
30635;SDS011;17400;52.392;9.750;2023-01-25T14:44:00;10.13;;;4.97;;
30635;SDS011;17400;52.392;9.750;2023-01-25T14:46:30;11.90;;;5.63;;
30635;SDS011;17400;52.392;9.750;2023-01-25T14:49:06;14.27;;;5.70;;
30635;SDS011;17400;52.392;9.750;2023-01-25T14:51:38;11.53;;;5.90;;
30635;SDS011;17400;52.392;9.750;2023-01-25T14:54:13;9.43;;;5.60;;
30635;SDS011;17400;52.392;9.750;2023-01-25T14:56:44;10.60;;;4.83;;
30635;SDS011;17400;52.392;9.750;2023-01-25T14:59:19;12.00;;;6.07;;
30635;SDS011;17400;52.392;9.750;2023-01-25T15:01:51;11.10;;;5.47;;
30635;SDS011;17400;52.392;9.750;2023-01-25T15:04:21;10.77;;;4.90;;
30635;SDS011;17400;52.392;9.750;2023-01-25T15:06:50;15.23;;;7.20;;
30635;SDS011;17400;52.392;9.750;2023-01-25T15:09:32;12.20;;;5.53;;
30635;SDS011;17400;52.392;9.750;2023-01-25T15:12:25;12.80;;;6.00;;
30635;SDS011;17400;52.392;9.750;2023-01-25T15:14:55;13.53;;;6.53;;
30635;SDS011;17400;52.392;9.750;2023-01-25T15:17:40;12.33;;;6.73;;
30635;SDS011;17400;52.392;9.750;2023-01-25T15:25:56;12.87;;;5.50;;